Time;durP1;ratioP1;P1;durP2;ratioP2;P2;SDS_P1;SDS_P2;PMS_P1;PMS_P2;Temp;Humidity;BMP_temperature;BMP_pressure;BME280_temperature;BME280_humidity;BME280_pressure;Samples;Min_cycle;Max_cycle;Signal;HPM_P1;HPM_P2
2022/08/16 00:01:20;;;;;;;11.63;6.90;;;23.60;99.90;;;;;;5055567;28;20228;-79
2022/08/16 00:03:52;;;;;;;12.30;7.45;;;23.60;99.90;;;;;;5073511;28;20719;-79
2022/08/16 00:06:24;;;;;;;8.73;7.10;;;23.60;99.90;;;;;;5073717;28;20225;-79
2022/08/16 00:08:51;;;;;;;7.72;7.03;;;23.60;99.90;;;;;;5073248;28;20200;-79
2022/08/16 00:11:19;;;;;;;9.85;7.50;;;23.40;99.90;;;;;;5073934;28;20212;-79
2022/08/16 00:13:49;;;;;;;8.75;6.80;;;23.50;99.90;;;;;;5056179;28;20208;-79
2022/08/16 00:16:23;;;;;;;7.75;6.72;;;23.40;99.90;;;;;;5073881;28;20212;-79
2022/08/16 00:19:15;;;;;;;10.00;7.78;;;23.50;99.90;;;;;;5073818;28;20665;-80
2022/08/16 00:21:43;;;;;;;10.70;6.88;;;23.40;99.90;;;;;;5055542;28;20299;-79
2022/08/16 00:24:11;;;;;;;7.72;6.97;;;23.40;99.90;;;;;;5072253;28;20274;-79
2022/08/16 00:26:57;;;;;;;9.80;7.00;;;23.40;99.90;;;;;;5072813;28;20765;-78
2022/08/16 00:29:24;;;;;;;9.57;7.05;;;23.40;99.90;;;;;;5072330;28;20595;-78
2022/08/16 00:31:55;;;;;;;9.15;7.20;;;23.50;99.90;;;;;;5072692;28;20266;-79
2022/08/16 00:34:28;;;;;;;8.52;7.60;;;23.30;99.90;;;;;;5055369;28;20211;-79
2022/08/16 00:37:16;;;;;;;11.27;7.53;;;23.30;99.90;;;;;;5072803;28;20672;-80
2022/08/16 00:39:47;;;;;;;11.38;8.95;;;23.20;99.90;;;;;;5072403;28;20275;-79
2022/08/16 00:42:29;;;;;;;13.38;9.00;;;23.20;99.90;;;;;;5072106;28;20228;-77
2022/08/16 00:45:06;;;;;;;10.95;8.50;;;23.00;99.90;;;;;;5054732;28;20676;-79
2022/08/16 00:47:41;;;;;;;9.80;8.43;;;23.00;99.90;;;;;;5072686;28;20281;-78
2022/08/16 00:50:16;;;;;;;13.48;9.07;;;22.90;99.90;;;;;;5072076;28;20188;-79
2022/08/16 00:52:43;;;;;;;9.82;8.20;;;22.80;99.90;;;;;;5072619;28;20204;-79
2022/08/16 00:55:22;;;;;;;9.15;7.72;;;22.80;99.90;;;;;;5071008;28;20571;-78
2022/08/16 00:57:52;;;;;;;9.98;8.23;;;22.70;99.90;;;;;;5072470;28;20223;-79
2022/08/16 01:00:28;;;;;;;9.35;8.40;;;22.60;99.90;;;;;;5073528;28;20246;-77
2022/08/16 01:02:58;;;;;;;11.02;7.55;;;22.50;99.90;;;;;;5073329;28;20205;-78
2022/08/16 01:05:26;;;;;;;9.45;7.57;;;22.50;99.90;;;;;;5072981;28;20649;-80
2022/08/16 01:07:53;;;;;;;9.20;8.05;;;22.40;99.90;;;;;;5073577;28;20315;-78
2022/08/16 01:10:23;;;;;;;9.93;7.97;;;22.40;99.90;;;;;;5072407;28;20204;-79
2022/08/16 01:13:02;;;;;;;10.20;7.75;;;22.30;99.90;;;;;;5072503;28;20675;-78
2022/08/16 01:15:36;;;;;;;9.65;8.65;;;22.30;99.90;;;;;;5055163;28;20284;-78
2022/08/16 01:18:07;;;;;;;9.45;7.50;;;22.20;99.90;;;;;;5054524;28;20246;-76
2022/08/16 01:21:06;;;;;;;14.27;7.80;;;22.20;99.90;;;;;;5072386;28;20204;-78
2022/08/16 01:24:04;;;;;;;11.77;8.18;;;22.10;99.90;;;;;;5070173;28;20283;-78
2022/08/16 01:26:57;;;;;;;10.85;8.10;;;22.10;99.90;;;;;;5071735;28;20433;-77
2022/08/16 01:29:36;;;;;;;12.20;8.52;;;22.00;99.90;;;;;;5071177;28;20638;-78
2022/08/16 01:32:23;;;;;;;12.60;9.43;;;22.00;99.90;;;;;;5071569;28;20201;-79
2022/08/16 01:35:01;;;;;;;10.63;8.57;;;21.90;99.90;;;;;;5071543;28;20231;-79
2022/08/16 01:37:44;;;;;;;12.48;8.90;;;21.80;99.90;;;;;;5071417;28;20300;-78
2022/08/16 01:40:25;;;;;;;11.48;8.50;;;21.80;99.90;;;;;;5051735;28;20260;-78
2022/08/16 01:42:54;;;;;;;10.68;8.77;;;21.70;99.90;;;;;;5051666;28;20247;-78
2022/08/16 01:45:22;;;;;;;12.23;9.00;;;21.70;99.90;;;;;;5052194;28;20201;-78
2022/08/16 01:48:05;;;;;;;11.57;7.97;;;21.60;99.90;;;;;;5051738;28;20220;-75
2022/08/16 01:50:49;;;;;;;11.65;8.68;;;21.60;99.90;;;;;;5052293;28;20204;-77
2022/08/16 01:53:36;;;;;;;11.32;9.73;;;21.50;99.90;;;;;;5059769;28;20204;-76
2022/08/16 01:56:06;;;;;;;13.32;9.45;;;21.50;99.90;;;;;;5051632;28;20239;-79
2022/08/16 01:58:49;;;;;;;10.52;9.02;;;21.40;99.90;;;;;;5068044;28;20236;-78
2022/08/16 02:01:17;;;;;;;10.02;8.90;;;21.40;99.90;;;;;;5067590;28;20733;-79
2022/08/16 02:03:44;;;;;;;13.25;9.32;;;21.30;99.90;;;;;;5066693;28;20204;-78
2022/08/16 02:06:17;;;;;;;12.23;9.70;;;21.30;99.90;;;;;;5067564;28;20307;-79
2022/08/16 02:09:02;;;;;;;10.88;8.88;;;21.30;99.90;;;;;;5067672;28;20675;-79
2022/08/16 02:11:31;;;;;;;12.95;9.18;;;21.20;99.90;;;;;;5067619;28;20636;-78
2022/08/16 02:14:21;;;;;;;9.45;8.48;;;21.30;99.90;;;;;;5067833;28;20239;-79
2022/08/16 02:16:52;;;;;;;13.13;10.00;;;21.10;99.90;;;;;;5067995;28;20209;-80
2022/08/16 02:19:19;;;;;;;13.95;10.15;;;21.10;99.90;;;;;;5066562;28;20317;-79
2022/08/16 02:21:51;;;;;;;12.88;9.68;;;21.00;99.90;;;;;;5067244;28;20301;-80
2022/08/16 02:24:40;;;;;;;12.75;9.55;;;21.00;99.90;;;;;;5067950;28;20299;-80
2022/08/16 02:27:11;;;;;;;13.57;9.40;;;21.00;99.90;;;;;;5067617;28;20836;-78
2022/08/16 02:29:39;;;;;;;11.02;9.85;;;21.00;99.90;;;;;;5067765;28;20254;-78
2022/08/16 02:32:09;;;;;;;11.30;9.35;;;21.10;99.90;;;;;;5049162;28;20637;-78
2022/08/16 02:34:57;;;;;;;15.05;10.63;;;;;;;;;;5066919;28;20231;-79
2022/08/16 02:37:23;;;;;;;11.95;9.93;;;20.80;99.90;;;;;;5067327;28;20639;-78
2022/08/16 02:40:12;;;;;;;11.82;10.07;;;20.70;99.90;;;;;;5067119;28;20321;-78
2022/08/16 02:42:43;;;;;;;15.27;11.68;;;20.70;99.90;;;;;;5067531;28;20325;-78
2022/08/16 02:45:10;;;;;;;13.60;10.93;;;20.60;99.90;;;;;;5067044;28;20220;-78
2022/08/16 02:47:38;;;;;;;12.00;10.32;;;20.60;99.90;;;;;;5049315;28;20353;-78
2022/08/16 02:50:26;;;;;;;13.48;10.50;;;20.50;99.90;;;;;;5067152;28;20314;-77
2022/08/16 02:53:12;;;;;;;15.15;11.32;;;20.40;99.90;;;;;;5067013;28;20269;-79
2022/08/16 02:55:44;;;;;;;13.80;11.85;;;20.30;99.90;;;;;;5067247;28;20293;-77
2022/08/16 02:58:16;;;;;;;13.68;11.43;;;20.30;99.90;;;;;;5067079;28;20686;-79
2022/08/16 03:00:43;;;;;;;14.50;11.80;;;20.20;99.90;;;;;;5067024;28;20674;-80
2022/08/16 03:03:16;;;;;;;15.18;11.52;;;20.20;99.90;;;;;;5066730;28;20246;-82
2022/08/16 03:05:46;;;;;;;19.35;11.70;;;20.20;99.90;;;;;;5067166;28;20608;-78
2022/08/16 03:08:19;;;;;;;15.05;12.52;;;20.10;99.90;;;;;;5067091;28;20255;-79
2022/08/16 03:11:07;;;;;;;17.27;14.00;;;20.10;99.90;;;;;;5066466;28;20232;-78
2022/08/16 03:13:50;;;;;;;16.75;13.82;;;20.10;99.90;;;;;;5050557;28;20262;-78
2022/08/16 03:16:20;;;;;;;18.48;14.02;;;20.00;99.90;;;;;;5067246;28;20219;-81
2022/08/16 03:19:08;;;;;;;18.35;15.00;;;19.80;99.90;;;;;;5068079;28;20240;-79
2022/08/16 03:21:36;;;;;;;22.40;15.32;;;19.90;99.90;;;;;;5071163;28;20242;-79
2022/08/16 03:24:06;;;;;;;22.80;15.93;;;19.90;99.90;;;;;;5070707;28;21007;-79
2022/08/16 03:26:54;;;;;;;23.98;16.27;;;19.90;99.90;;;;;;5069624;28;20304;-79
2022/08/16 03:29:28;;;;;;;19.92;16.45;;;20.20;99.90;;;;;;5070908;28;20204;-80
2022/08/16 03:31:57;;;;;;;18.73;15.68;;;19.80;99.90;;;;;;5070822;28;20197;-78
2022/08/16 03:34:26;;;;;;;19.92;14.82;;;19.70;99.90;;;;;;5070063;28;20201;-80
2022/08/16 03:36:53;;;;;;;17.88;15.68;;;19.70;99.90;;;;;;5070662;28;20212;-79
2022/08/16 03:39:20;;;;;;;19.45;15.05;;;19.70;99.90;;;;;;5070364;28;20247;-79
2022/08/16 03:41:49;;;;;;;20.02;15.75;;;19.70;99.90;;;;;;5070270;28;20197;-79
2022/08/16 03:44:25;;;;;;;17.30;15.35;;;19.70;99.90;;;;;;5069375;28;20205;-77
2022/08/16 03:47:12;;;;;;;19.17;15.18;;;19.60;99.90;;;;;;5070192;28;20281;-78
2022/08/16 03:49:46;;;;;;;26.42;17.25;;;19.50;99.90;;;;;;5070491;28;20293;-80
2022/08/16 03:52:18;;;;;;;20.05;16.05;;;19.60;99.90;;;;;;5070688;28;20615;-78
2022/08/16 03:54:49;;;;;;;18.63;15.10;;;19.80;99.90;;;;;;5070076;28;20217;-79
2022/08/16 03:57:24;;;;;;;19.05;14.50;;;19.60;99.90;;;;;;5070588;28;20212;-80
2022/08/16 04:00:24;;;;;;;17.98;14.75;;;19.70;99.90;;;;;;5070230;28;20267;-79
2022/08/16 04:03:07;;;;;;;16.60;14.40;;;19.80;99.90;;;;;;5069860;28;20209;-78
2022/08/16 04:05:37;;;;;;;16.98;14.40;;;19.50;99.90;;;;;;5069993;28;20208;-78
2022/08/16 04:08:05;;;;;;;18.75;15.00;;;19.50;99.90;;;;;;5069051;28;20938;-79
2022/08/16 04:10:51;;;;;;;18.45;14.35;;;19.60;99.90;;;;;;5070198;28;20298;-79
2022/08/16 04:13:20;;;;;;;18.70;14.30;;;19.70;99.90;;;;;;5069881;28;20215;-79
2022/08/16 04:16:08;;;;;;;17.55;14.00;;;19.50;99.90;;;;;;5069595;28;20235;-79
2022/08/16 04:18:53;;;;;;;19.25;15.05;;;19.50;99.90;;;;;;5069568;28;20656;-80
2022/08/16 04:21:28;;;;;;;18.08;14.80;;;19.70;99.90;;;;;;5068984;28;20287;-78
2022/08/16 04:23:55;;;;;;;18.70;14.13;;;19.50;99.90;;;;;;5070300;28;20209;-80
2022/08/16 04:26:22;;;;;;;16.88;13.73;;;19.40;99.90;;;;;;5070060;28;20266;-80
2022/08/16 04:28:49;;;;;;;18.98;14.43;;;19.40;99.90;;;;;;5069500;28;20228;-79
2022/08/16 04:31:36;;;;;;;19.17;14.63;;;19.60;99.90;;;;;;5050177;28;20213;-78
2022/08/16 04:34:03;;;;;;;20.38;14.15;;;19.70;99.90;;;;;;5049317;28;20216;-79
2022/08/16 04:36:34;;;;;;;21.23;14.77;;;19.50;99.90;;;;;;5060216;28;20271;-80
2022/08/16 04:39:02;;;;;;;19.23;14.55;;;19.50;99.90;;;;;;5069454;28;20208;-78
2022/08/16 04:41:30;;;;;;;19.27;14.35;;;19.50;99.90;;;;;;5067924;28;20656;-79
2022/08/16 04:43:59;;;;;;;19.77;14.52;;;19.50;99.90;;;;;;5050770;28;20684;-79
2022/08/16 04:46:25;;;;;;;20.60;14.45;;;19.40;99.90;;;;;;5068750;28;20251;-80
2022/08/16 04:49:12;;;;;;;17.45;13.98;;;19.40;99.90;;;;;;5069085;28;20196;-78
2022/08/16 04:51:42;;;;;;;15.88;12.93;;;19.50;99.90;;;;;;5069410;28;20209;-79
2022/08/16 04:54:19;;;;;;;26.55;14.05;;;19.50;99.90;;;;;;5068293;28;20215;-80
2022/08/16 04:56:46;;;;;;;18.55;14.07;;;19.80;99.90;;;;;;5068906;28;20208;-79
2022/08/16 04:59:14;;;;;;;18.35;13.50;;;19.50;99.90;;;;;;5068588;28;20235;-80
2022/08/16 05:01:42;;;;;;;20.13;14.88;;;19.50;99.90;;;;;;5068334;28;20215;-79
2022/08/16 05:04:24;;;;;;;19.42;14.35;;;19.60;99.90;;;;;;5069890;28;20314;-77
2022/08/16 05:06:56;;;;;;;16.80;13.77;;;19.60;99.90;;;;;;5053368;28;20204;-80
2022/08/16 05:09:23;;;;;;;19.70;14.57;;;19.70;99.90;;;;;;5072301;28;20653;-78
2022/08/16 05:11:50;;;;;;;19.10;14.82;;;19.70;99.90;;;;;;5074420;28;20200;-80
2022/08/16 05:14:17;;;;;;;17.95;13.32;;;19.80;99.90;;;;;;5073002;28;20246;-78
2022/08/16 05:17:04;;;;;;;19.08;14.60;;;19.90;99.90;;;;;;5072817;28;20295;-78
2022/08/16 05:19:31;;;;;;;18.48;14.05;;;19.90;99.90;;;;;;5072156;28;20576;-79
2022/08/16 05:22:02;;;;;;;16.25;14.00;;;20.10;99.90;;;;;;5069354;28;20193;-79
2022/08/16 05:24:30;;;;;;;21.75;16.05;;;20.20;99.90;;;;;;5070950;28;20207;-79
2022/08/16 05:26:57;;;;;;;21.70;16.02;;;20.40;99.90;;;;;;5070603;28;20200;-78
2022/08/16 05:29:23;;;;;;;20.65;15.05;;;20.50;99.90;;;;;;5069026;28;20193;-78
2022/08/16 05:32:10;;;;;;;23.85;16.95;;;20.70;99.90;;;;;;5069164;28;20199;-79
2022/08/16 05:35:00;;;;;;;22.55;17.33;;;20.90;99.90;;;;;;5069408;28;20196;-79
2022/08/16 05:37:28;;;;;;;21.48;17.25;;;21.00;99.90;;;;;;5069312;28;20287;-79
2022/08/16 05:40:07;;;;;;;23.13;16.88;;;21.20;99.90;;;;;;5050535;28;20209;-80
2022/08/16 05:42:39;;;;;;;22.77;17.38;;;21.40;99.90;;;;;;5071052;28;20203;-81
2022/08/16 05:45:12;;;;;;;27.92;18.15;;;21.50;99.90;;;;;;5070953;28;20205;-79
2022/08/16 05:47:47;;;;;;;24.58;17.95;;;21.70;99.90;;;;;;5065766;28;20224;-81
2022/08/16 05:50:25;;;;;;;23.42;16.80;;;21.80;99.90;;;;;;5050449;28;20606;-78
2022/08/16 05:52:59;;;;;;;25.75;18.38;;;22.00;99.90;;;;;;5072936;28;20693;-81
2022/08/16 05:55:27;;;;;;;22.65;18.33;;;22.10;99.90;;;;;;5058851;28;20211;-79
2022/08/16 05:57:55;;;;;;;24.35;18.35;;;22.20;99.90;;;;;;5077321;28;20218;-80
2022/08/16 06:00:23;;;;;;;24.80;18.15;;;22.30;99.90;;;;;;5074762;28;20239;-80
2022/08/16 06:02:51;;;;;;;25.98;18.52;;;22.40;99.90;;;;;;5076226;28;20208;-82
2022/08/16 06:05:19;;;;;;;30.05;18.25;;;22.50;99.90;;;;;;5077290;28;20250;-81
2022/08/16 06:07:46;;;;;;;23.35;19.30;;;22.70;99.90;;;;;;5069272;28;20220;-81
2022/08/16 06:10:25;;;;;;;29.58;20.40;;;22.80;99.90;;;;;;5071247;28;20322;-77
2022/08/16 06:12:58;;;;;;;25.55;20.10;;;23.10;99.90;;;;;;5052522;28;20209;-79
2022/08/16 06:15:26;;;;;;;26.27;19.80;;;23.80;99.90;;;;;;5076682;28;20282;-81
2022/08/16 06:17:57;;;;;;;24.83;19.30;;;24.40;99.90;;;;;;5059815;28;20474;-81
2022/08/16 06:20:28;;;;;;;23.77;19.48;;;24.80;99.90;;;;;;5078298;28;20193;-79
2022/08/16 06:23:02;;;;;;;24.92;18.70;;;25.00;99.90;;;;;;5075705;28;20196;-78
2022/08/16 06:25:43;;;;;;;25.08;19.50;;;25.50;99.90;;;;;;5075470;28;20242;-80
2022/08/16 06:28:20;;;;;;;21.77;17.48;;;25.60;99.90;;;;;;5062849;28;20338;-80
2022/08/16 06:31:04;;;;;;;21.67;18.67;;;25.60;99.90;;;;;;5075661;28;20214;-80
2022/08/16 06:33:32;;;;;;;22.17;17.65;;;;;;;;;;5074470;28;20234;-81
2022/08/16 06:36:10;;;;;;;22.13;18.27;;;26.20;99.90;;;;;;5074026;28;20205;-81
2022/08/16 06:38:40;;;;;;;21.85;17.00;;;26.80;99.90;;;;;;5073197;28;20215;-80
2022/08/16 06:41:22;;;;;;;20.10;16.20;;;27.70;99.90;;;;;;5074112;28;20234;-80
2022/08/16 06:43:53;;;;;;;18.73;15.90;;;28.50;99.90;;;;;;5072547;28;20280;-77
2022/08/16 06:46:24;;;;;;;23.08;18.25;;;29.00;99.90;;;;;;5072261;28;20214;-79
2022/08/16 06:48:57;;;;;;;18.35;16.45;;;29.40;99.90;;;;;;5071037;28;20238;-77
2022/08/16 06:51:24;;;;;;;20.05;17.92;;;29.80;99.90;;;;;;5069440;28;20628;-77
2022/08/16 06:54:11;;;;;;;19.48;17.17;;;30.00;99.90;;;;;;5070288;28;20212;-80
2022/08/16 06:56:41;;;;;;;21.17;17.83;;;29.80;99.90;;;;;;5076479;28;20239;-79
2022/08/16 06:59:11;;;;;;;20.65;17.17;;;29.40;99.90;;;;;;5059988;28;20228;-81
2022/08/16 07:01:38;;;;;;;21.90;17.75;;;29.10;99.90;;;;;;5057506;28;20211;-78
2022/08/16 07:04:19;;;;;;;20.17;17.33;;;29.00;99.90;;;;;;5071738;28;20189;-80
2022/08/16 07:06:59;;;;;;;19.63;16.55;;;29.00;99.90;;;;;;5073068;28;20200;-80
2022/08/16 07:10:12;;;;;;;21.00;16.90;;;29.40;99.90;;;;;;5058739;28;20656;-80
2022/08/16 07:12:53;;;;;;;21.63;15.82;;;30.00;99.90;;;;;;5337338;22;20232;-80
2022/08/16 07:17:02;;;;;;;21.52;17.10;;;30.10;99.90;;;;;;5053528;28;20212;-81
2022/08/16 07:19:47;;;;;;;16.83;14.85;;;30.50;99.90;;;;;;4986251;28;20226;-78
2022/08/16 07:23:01;;;;;;;22.80;16.38;;;31.00;99.90;;;;;;4974981;28;20204;-77
2022/08/16 07:25:51;;;;;;;18.25;16.20;;;31.50;99.90;;;;;;5044286;28;20199;-77
2022/08/16 07:28:29;;;;;;;18.95;16.23;;;31.80;99.90;;;;;;5054885;28;20327;-77
2022/08/16 07:31:24;;;;;;;19.10;15.98;;;32.10;99.80;;;;;;5048805;28;20220;-77
2022/08/16 07:34:26;;;;;;;19.67;15.10;;;32.60;98.60;;;;;;5051783;28;20248;-79
2022/08/16 07:37:10;;;;;;;18.02;16.08;;;32.70;96.40;;;;;;5050080;28;20208;-78
2022/08/16 07:39:50;;;;;;;19.58;16.58;;;32.70;95.70;;;;;;5051808;28;20210;-79
2022/08/16 07:42:44;;;;;;;18.95;14.77;;;32.50;95.60;;;;;;5044912;28;20310;-79
2022/08/16 07:46:02;;;;;;;17.42;13.90;;;32.30;95.10;;;;;;5036843;28;20282;-78
2022/08/16 07:52:22;;;;;;;16.27;14.35;;;32.90;94.50;;;;;;5083867;23;20221;-78
2022/08/16 07:55:18;;;;;;;14.02;12.02;;;32.90;93.30;;;;;;5070775;28;20211;-76
2022/08/16 07:59:06;;;;;;;15.82;12.85;;;32.80;93.30;;;;;;5090213;28;20204;-79
2022/08/16 08:02:09;;;;;;;14.77;11.52;;;33.00;92.80;;;;;;5075530;28;20200;-77
2022/08/16 08:05:06;;;;;;;13.07;11.50;;;33.20;93.00;;;;;;5058558;28;20199;-79
2022/08/16 08:07:43;;;;;;;11.27;10.13;;;33.60;91.60;;;;;;5073027;28;20271;-79
2022/08/16 08:10:26;;;;;;;12.23;10.93;;;33.80;91.40;;;;;;5069861;28;20571;-78
2022/08/16 08:13:14;;;;;;;17.40;11.77;;;33.70;90.00;;;;;;5075713;28;20207;-78
2022/08/16 08:16:14;;;;;;;10.57;9.60;;;33.80;90.30;;;;;;5081699;28;20196;-76
2022/08/16 08:19:19;;;;;;;11.32;9.77;;;33.90;90.30;;;;;;5083261;28;20210;-80
2022/08/16 08:22:18;;;;;;;9.68;8.68;;;34.20;88.00;;;;;;5062487;28;20199;-80
2022/08/16 08:25:09;;;;;;;10.45;8.52;;;34.20;88.00;;;;;;5072074;28;20558;-75
2022/08/16 08:28:29;;;;;;;;;;;;;;;;;;;;;
2022/08/16 08:31:37;;;;;;;9.93;7.68;;;34.40;83.80;;;;;;5089271;28;20300;-77
2022/08/16 08:34:43;;;;;;;9.27;6.45;;;34.40;82.50;;;;;;5085635;28;20204;-78
2022/08/16 08:37:13;;;;;;;9.85;6.90;;;34.30;86.70;;;;;;5091071;28;20199;-79
2022/08/16 08:39:41;;;;;;;6.82;6.22;;;34.10;79.10;;;;;;5093632;28;20216;-77
2022/08/16 08:42:25;;;;;;;6.95;6.00;;;33.80;78.30;;;;;;5074692;28;20235;-77
2022/08/16 08:44:57;;;;;;;6.60;6.00;;;33.50;77.90;;;;;;5090182;28;20221;-78
2022/08/16 08:47:36;;;;;;;6.07;5.43;;;33.30;77.60;;;;;;5086974;28;20195;-77
2022/08/16 08:50:13;;;;;;;6.40;5.72;;;33.20;77.20;;;;;;5088986;28;20222;-78
2022/08/16 08:52:59;;;;;;;6.60;5.57;;;33.20;77.00;;;;;;5066184;28;20479;-81
2022/08/16 08:55:27;;;;;;;8.02;5.40;;;33.50;76.90;;;;;;5067624;28;20210;-80
2022/08/16 08:57:56;;;;;;;6.20;5.40;;;33.40;76.00;;;;;;5064892;28;20214;-80
2022/08/16 09:00:26;;;;;;;7.55;6.25;;;33.10;75.30;;;;;;5069446;28;20597;-80
2022/08/16 09:02:59;;;;;;;6.00;5.40;;;33.50;75.00;;;;;;5064178;28;20211;-80
2022/08/16 09:05:34;;;;;;;7.78;5.72;;;33.50;75.30;;;;;;5070112;28;20203;-79
2022/08/16 09:08:06;;;;;;;5.97;5.32;;;33.60;75.50;;;;;;5070555;28;20662;-80
2022/08/16 09:10:34;;;;;;;6.15;5.47;;;33.80;75.30;;;;;;5064215;28;20219;-80
2022/08/16 09:13:06;;;;;;;6.22;4.90;;;34.00;75.00;;;;;;5064753;28;20341;-80
2022/08/16 09:15:36;;;;;;;8.00;4.97;;;34.10;73.00;;;;;;5087650;28;20666;-80
2022/08/16 09:18:04;;;;;;;5.70;5.10;;;34.10;72.40;;;;;;5086378;28;20261;-79
2022/08/16 09:20:51;;;;;;;5.65;5.03;;;34.10;72.70;;;;;;5089354;28;20200;-80
2022/08/16 09:23:28;;;;;;;5.53;5.03;;;34.10;72.10;;;;;;5097611;28;20268;-82
2022/08/16 09:25:55;;;;;;;7.53;5.07;;;34.20;73.10;;;;;;5097563;28;20195;-81
2022/08/16 09:28:23;;;;;;;8.90;5.60;;;34.30;72.00;;;;;;5096189;28;20315;-78
2022/08/16 09:31:11;;;;;;;5.20;4.70;;;34.20;70.90;;;;;;5087413;28;20603;-76
2022/08/16 09:33:40;;;;;;;6.43;5.45;;;34.30;71.90;;;;;;5074444;28;20635;-80
2022/08/16 09:36:08;;;;;;;7.53;5.70;;;34.20;71.50;;;;;;5094136;28;20208;-80
2022/08/16 09:38:56;;;;;;;8.80;5.72;;;34.10;71.90;;;;;;5092810;28;20231;-80
2022/08/16 09:41:25;;;;;;;6.60;6.00;;;34.10;72.30;;;;;;5087206;28;20751;-81
2022/08/16 09:43:54;;;;;;;6.65;5.53;;;33.90;71.70;;;;;;5091751;28;20199;-79
2022/08/16 09:46:29;;;;;;;6.43;5.40;;;34.00;76.00;;;;;;5090279;28;20188;-78
2022/08/16 09:49:16;;;;;;;5.75;4.65;;;34.10;83.90;;;;;;5075346;28;20618;-78
2022/08/16 09:51:52;;;;;;;7.50;5.38;;;34.30;74.90;;;;;;5068900;28;20352;-77
2022/08/16 09:54:24;;;;;;;7.28;5.15;;;33.80;75.50;;;;;;5065958;28;20203;-78
2022/08/16 09:57:13;;;;;;;18.17;5.78;;;33.50;71.80;;;;;;5087681;28;20203;-77
2022/08/16 09:59:53;;;;;;;7.57;5.15;;;33.90;71.80;;;;;;5070795;28;20212;-79
2022/08/16 10:02:26;;;;;;;5.53;4.90;;;34.20;70.50;;;;;;5091917;28;20987;-80
2022/08/16 10:04:58;;;;;;;8.07;4.93;;;34.00;69.90;;;;;;5067977;28;20192;-78
2022/08/16 10:15:30;;;;;;;6.30;5.70;;;34.60;76.30;;;;;;4991305;28;20277;-79
2022/08/16 10:17:57;;;;;;;6.60;5.20;;;33.50;75.50;;;;;;5081956;28;20210;-80
2022/08/16 10:20:34;;;;;;;8.15;5.57;;;33.60;76.70;;;;;;5070680;28;20203;-81
2022/08/16 10:23:06;;;;;;;6.03;5.53;;;33.50;75.90;;;;;;5093461;28;20215;-80
2022/08/16 10:25:38;;;;;;;6.63;5.20;;;33.50;75.10;;;;;;5094120;28;20208;-80
2022/08/16 10:28:26;;;;;;;6.97;5.35;;;33.50;72.40;;;;;;5089436;28;20230;-79
2022/08/16 10:30:59;;;;;;;6.95;5.60;;;33.30;71.90;;;;;;5102976;28;20228;-77
2022/08/16 10:33:34;;;;;;;7.03;5.80;;;33.30;71.20;;;;;;5106203;28;20196;-83
2022/08/16 10:36:07;;;;;;;8.75;6.40;;;33.30;71.30;;;;;;5105200;28;20245;-81
2022/08/16 10:39:03;;;;;;;9.40;6.35;;;33.10;72.10;;;;;;5104127;28;20663;-81
2022/08/16 10:41:34;;;;;;;7.13;6.40;;;33.00;72.00;;;;;;5080194;28;20308;-82
2022/08/16 10:44:01;;;;;;;8.13;6.40;;;32.80;72.50;;;;;;5099172;28;20196;-81
2022/08/16 10:46:29;;;;;;;7.15;6.45;;;32.60;72.40;;;;;;5076034;28;20199;-83
2022/08/16 10:49:06;;;;;;;7.57;6.47;;;32.40;72.90;;;;;;5094245;28;20223;-81
2022/08/16 10:51:37;;;;;;;7.72;6.85;;;32.20;74.10;;;;;;5087302;28;20242;-81
2022/08/16 10:54:24;;;;;;;7.97;6.78;;;32.30;74.40;;;;;;5072279;28;20205;-81
2022/08/16 10:56:57;;;;;;;8.88;7.13;;;32.50;75.10;;;;;;5088174;28;20892;-81
2022/08/16 11:00:09;;;;;;;12.82;8.07;;;32.70;75.60;;;;;;5080659;28;20196;-80
2022/08/16 11:03:08;;;;;;;9.95;7.85;;;32.80;75.90;;;;;;5072851;28;20208;-82
2022/08/16 11:06:39;;;;;;;10.20;7.53;;;32.70;76.40;;;;;;5069011;28;20512;-81
2022/08/16 11:09:55;;;;;;;9.75;8.00;;;32.60;75.60;;;;;;5075383;28;20234;-79
2022/08/16 11:16:30;;;;;;;9.55;7.18;;;32.60;76.70;;;;;;5148406;23;20227;-78
2022/08/16 11:20:04;;;;;;;9.18;8.00;;;32.60;75.40;;;;;;4981371;28;20714;-81
2022/08/16 11:26:31;;;;;;;12.38;9.57;;;32.60;78.10;;;;;;1059296;26;20523;-80
2022/08/16 11:29:37;;;;;;;10.13;7.15;;;32.60;77.20;;;;;;4979865;28;20219;-80
2022/08/16 11:39:39;;;;;;;;;;;;;;;;;;;;;
2022/08/16 11:43:31;;;;;;;10.32;6.78;;;32.80;76.50;;;;;;5067983;23;20259;-80
2022/08/16 11:54:25;;;;;;;;;;;;;;;;;;;;;
2022/08/16 11:57:32;;;;;;;6.63;6.03;;;33.00;75.60;;;;;;4883985;29;20230;-80
2022/08/16 12:00:14;;;;;;;8.77;6.10;;;32.80;75.50;;;;;;4854543;29;20208;-81
2022/08/16 12:03:01;;;;;;;7.55;5.63;;;32.90;75.00;;;;;;4887706;29;20812;-78
2022/08/16 12:05:30;;;;;;;6.82;5.47;;;33.00;74.10;;;;;;4906318;29;20574;-78
2022/08/16 12:07:57;;;;;;;10.43;5.95;;;33.20;73.20;;;;;;4918334;29;20300;-78
2022/08/16 12:10:29;;;;;;;7.75;6.95;;;33.30;73.10;;;;;;4904622;29;20630;-79
2022/08/16 12:17:02;;;;;;;7.22;6.53;;;33.30;74.00;;;;;;4887960;29;20221;-80
2022/08/16 12:19:31;;;;;;;9.57;7.13;;;33.50;74.80;;;;;;4894812;29;20218;-78
2022/08/16 12:22:10;;;;;;;7.30;6.00;;;33.60;74.50;;;;;;4885761;29;20258;-80
2022/08/16 12:24:59;;;;;;;6.53;5.82;;;33.40;74.30;;;;;;4895059;29;20316;-78
2022/08/16 12:27:46;;;;;;;7.63;5.78;;;33.40;73.70;;;;;;4826268;29;20227;-79
2022/08/16 12:30:27;;;;;;;7.28;6.50;;;33.40;73.70;;;;;;4807920;29;20244;-78
2022/08/16 12:33:02;;;;;;;8.77;5.22;;;33.40;72.80;;;;;;4873019;29;20210;-79
2022/08/16 12:35:37;;;;;;;5.45;4.95;;;33.50;73.00;;;;;;4913037;29;20214;-80
2022/08/16 12:38:06;;;;;;;6.43;5.75;;;33.40;70.30;;;;;;4907870;29;20224;-78
2022/08/16 12:41:18;;;;;;;8.20;5.43;;;33.50;70.70;;;;;;4916669;29;20210;-81
2022/08/16 12:45:04;;;;;;;8.73;4.72;;;33.70;71.80;;;;;;4885436;29;20705;-81
2022/08/16 12:51:55;;;;;;;6.60;4.90;;;33.80;69.00;;;;;;4894177;28;20389;-79
2022/08/16 12:54:38;;;;;;;7.30;5.63;;;33.90;70.30;;;;;;4976536;28;20676;-79
2022/08/16 12:57:08;;;;;;;10.30;5.55;;;34.10;70.10;;;;;;4984596;28;20215;-79
2022/08/16 12:59:41;;;;;;;5.32;4.68;;;34.00;70.70;;;;;;4986659;28;20207;-79
2022/08/16 13:02:08;;;;;;;5.72;4.32;;;34.00;69.30;;;;;;4988731;28;20208;-80
2022/08/16 13:04:55;;;;;;;5.35;4.50;;;34.00;69.40;;;;;;4978685;28;20306;-78
2022/08/16 13:07:23;;;;;;;7.47;4.68;;;33.90;67.40;;;;;;4978070;28;20239;-81
2022/08/16 13:09:57;;;;;;;5.60;4.75;;;33.70;67.20;;;;;;4978606;28;20894;-80
2022/08/16 13:12:26;;;;;;;7.28;4.55;;;33.50;68.10;;;;;;4978099;28;20223;-80
2022/08/16 13:14:54;;;;;;;6.03;4.53;;;33.30;68.80;;;;;;4978533;28;20232;-83
2022/08/16 13:17:24;;;;;;;6.32;4.60;;;33.10;68.80;;;;;;4978798;28;20219;-83
2022/08/16 13:19:55;;;;;;;6.30;5.68;;;32.80;69.50;;;;;;4982231;28;20238;-84
2022/08/16 13:22:44;;;;;;;7.57;5.55;;;32.60;69.90;;;;;;4982681;28;21198;-79
2022/08/16 13:25:15;;;;;;;7.57;5.72;;;32.40;71.10;;;;;;4968882;28;20211;-82
2022/08/16 13:27:48;;;;;;;8.85;6.20;;;32.30;72.20;;;;;;4982988;28;20225;-81
2022/08/16 13:30:39;;;;;;;7.28;6.57;;;32.20;73.20;;;;;;4976523;28;20633;-79
2022/08/16 13:33:10;;;;;;;6.90;6.00;;;32.40;74.30;;;;;;4973374;28;20219;-81
2022/08/16 13:35:44;;;;;;;7.20;6.45;;;32.40;75.00;;;;;;4978682;28;20536;-81
2022/08/16 13:38:12;;;;;;;11.38;7.05;;;32.60;75.30;;;;;;4980194;28;20195;-80
2022/08/16 13:40:54;;;;;;;9.13;6.45;;;32.60;75.30;;;;;;4968530;28;20235;-80
2022/08/16 13:43:25;;;;;;;7.28;6.53;;;32.60;75.30;;;;;;4981318;28;20259;-79
2022/08/16 13:45:53;;;;;;;11.10;6.53;;;32.80;75.10;;;;;;4974563;28;20339;-81
2022/08/16 13:48:24;;;;;;;8.77;6.28;;;32.90;75.00;;;;;;4957918;28;20822;-79
2022/08/16 13:51:03;;;;;;;8.45;6.60;;;33.00;74.30;;;;;;4968581;28;20239;-77
2022/08/16 13:53:30;;;;;;;7.65;6.45;;;33.10;74.50;;;;;;4973765;28;20196;-77
2022/08/16 13:55:58;;;;;;;9.95;5.80;;;33.20;74.30;;;;;;4974204;28;20668;-81
2022/08/16 13:58:27;;;;;;;7.55;6.63;;;33.10;73.70;;;;;;4979914;28;20282;-82
2022/08/16 14:01:03;;;;;;;10.80;6.78;;;33.10;74.20;;;;;;4977826;28;21004;-81
2022/08/16 14:03:38;;;;;;;7.60;6.88;;;33.10;74.40;;;;;;4973811;28;20259;-83
2022/08/16 14:06:07;;;;;;;8.13;6.70;;;33.20;74.20;;;;;;4975995;28;20821;-83
2022/08/16 14:08:41;;;;;;;7.22;6.53;;;33.20;73.50;;;;;;4978001;28;20204;-83
2022/08/16 14:11:10;;;;;;;7.72;6.15;;;33.20;72.70;;;;;;4982993;28;20223;-83
2022/08/16 14:13:41;;;;;;;10.95;6.85;;;33.20;72.70;;;;;;4978219;28;20286;-81
2022/08/16 14:20:37;;;;;;;6.30;5.55;;;33.10;71.10;;;;;;4895671;29;20213;-83
2022/08/16 14:24:17;;;;;;;7.45;5.00;;;32.90;71.00;;;;;;4836762;29;20221;-81
2022/08/16 14:31:00;;;;;;;8.85;5.40;;;33.00;69.30;;;;;;4916572;29;20241;-81